Flight Track Log - Related Links

Times and Time Zones

All times are in EDT time to prevent confusion due to time zone crossing. See the AIP5031 flight status page for this flight to view local times or setup timezone preferences in your user account.

Time Position Orientation Groundspeed Altitude Reporting Facility
EDT Latitude Longitude Course Direction KTS MPH feet Rate Location/Type
Wed 05:31:32 AM 46.9317 -114.1194 105° East 160 184 4,200  Level Salt Lake Center
Wed 05:32:32 AM 46.9158 -114.1578 239° Southwest 155 178 6,100 1,650 Climbing Salt Lake Center
Wed 05:33:32 AM 46.8986 -114.0992 113° Southeast 169 194 7,500 1,450 Climbing Salt Lake Center
Wed 05:34:32 AM 46.8864 -114.0336 105° East 170 196 9,000 1,350 Climbing Salt Lake Center
Wed 05:35:00 AM 46.8231 -113.5563 101° East  Level Estimated
Wed 05:35:32 AM 46.8742 -113.9600 104° East 173 199 10,200  Level Salt Lake Center
Wed 05:36:00 AM 46.8065 -113.4678 105° East  Level FlightAware Approximate
Wed 05:36:32 AM 46.8614 -113.8892 105° East 180 207 11,200  Level Salt Lake Center
Wed 05:37:32 AM 46.8494 -113.8164 103° East 184 212 12,300 1,041 Climbing Salt Lake Center
Wed 05:38:33 AM 46.8328 -113.7431 108° East 191 220 13,300 843 Climbing Salt Lake Center
Wed 05:39:33 AM 46.8225 -113.6669 101° East 193 222 14,000 700 Climbing Salt Lake Center
Wed 05:40:33 AM 46.8081 -113.5869 105° East 205 236 14,700 550 Climbing Salt Lake Center
Wed 05:41:33 AM 46.7925 -113.5036 105° East 212 244 15,100 150 Climbing Salt Lake Center
Wed 05:42:33 AM 46.7753 -113.4114 105° East 235 270 15,000 -50 Descending Salt Lake Center
Wed 05:43:33 AM 46.7628 -113.3172 101° East 238 274 15,000 50 Level Salt Lake Center
Wed 05:44:33 AM 46.7517 -113.2358 101° East 232 267 15,100 50 Climbing Salt Lake Center
Wed 05:45:34 AM 46.7400 -113.1431 100° East 233 268 15,100  Level Salt Lake Center
Wed 05:46:34 AM 46.7281 -113.0483 100° East 236 272 15,100  Level Salt Lake Center
Wed 05:47:34 AM 46.7117 -112.9547 104° East 238 274 15,100  Level Salt Lake Center
Wed 05:48:34 AM 46.6900 -112.8544 107° East 233 268 15,100  Level Salt Lake Center
Wed 05:49:34 AM 46.6708 -112.7628 107° East 236 272 15,100  Level Salt Lake Center
Wed 05:50:35 AM 46.6536 -112.6714 105° East 237 273 15,100  Level Salt Lake Center
Wed 05:51:35 AM 46.6344 -112.5778 107° East 239 275 15,100 -50 Level Salt Lake Center
Wed 05:52:35 AM 46.6200 -112.4861 103° East 237 273 15,000 -50 Descending Salt Lake Center
Wed 05:53:35 AM 46.6031 -112.3950 105° East 235 270 15,000 50 Level Salt Lake Center
Wed 05:54:35 AM 46.5833 -112.3072 108° East 233 268 15,100 50 Climbing Salt Lake Center
Wed 05:55:35 AM 46.5625 -112.2167 108° East 234 269 15,100  Level Salt Lake Center
Wed 05:56:36 AM 46.5436 -112.1261 107° East 234 269 15,100  Level Salt Lake Center
Wed 05:57:36 AM 46.5256 -112.0328 106° East 236 272 15,100  Level Salt Lake Center
Wed 05:58:36 AM 46.5156 -111.9417 99° East 234 269 15,100  Level Salt Lake Center
Wed 05:59:36 AM 46.4983 -111.8514 105° East 236 272 15,100  Level Salt Lake Center
Wed 06:00:36 AM 46.4783 -111.7600 108° East 238 274 15,100 -50 Level Salt Lake Center
Wed 06:01:37 AM 46.4589 -111.6669 107° East 241 277 15,000 -50 Descending Salt Lake Center
Wed 06:02:37 AM 46.4375 -111.5706 108° East 240 276 15,000  Level Salt Lake Center
Wed 06:03:37 AM 46.4189 -111.4767 106° East 241 277 15,000  Level Salt Lake Center
Wed 06:04:37 AM 46.4017 -111.3828 105° East 241 277 15,000  Level Salt Lake Center
Wed 06:05:37 AM 46.3842 -111.2889 105° East 241 277 15,000  Level Salt Lake Center
Wed 06:06:38 AM 46.3633 -111.1953 108° East 243 280 15,000  Level Salt Lake Center
Wed 06:07:38 AM 46.3469 -111.1006 104° East 243 280 15,000  Level Salt Lake Center
Wed 06:08:38 AM 46.3364 -111.0044 99° East 243 280 15,000 50 Level Salt Lake Center
Wed 06:09:38 AM 46.3183 -110.9097 105° East 239 275 15,100 50 Climbing Salt Lake Center
Wed 06:10:39 AM 46.3056 -110.8150 101° East 239 275 15,100  Level Salt Lake Center
Wed 06:11:39 AM 46.2994 -110.7317 96° East 240 276 15,100  Level Salt Lake Center
Wed 06:12:39 AM 46.2728 -110.6281 110° East 243 280 15,100  Level Salt Lake Center
Wed 06:13:39 AM 46.2536 -110.5364 107° East 239 275 15,100 -50 Level Salt Lake Center
Wed 06:14:40 AM 46.2364 -110.4411 105° East 241 277 15,000 -50 Descending Salt Lake Center
Wed 06:15:40 AM 46.2183 -110.3425 105° East 248 285 15,000 -50 Level Salt Lake Center
Wed 06:16:40 AM 46.1919 -110.2500 112° Southeast 251 289 14,900 -50 Descending Salt Lake Center
Wed 06:17:40 AM 46.1619 -110.1628 116° Southeast 248 285 14,900 50 Level Salt Lake Center
Wed 06:18:41 AM 46.1414 -110.0689 108° East 245 282 15,000 50 Climbing Salt Lake Center
Wed 06:19:41 AM 46.1203 -109.9764 108° East 244 281 15,000 -50 Level Salt Lake Center
Wed 06:20:41 AM 46.0997 -109.8831 108° East 244 281 14,900  Descending Salt Lake Center
Wed 06:21:41 AM 46.0808 -109.7833 105° East 252 290 15,000 50 Climbing Salt Lake Center
Wed 06:22:42 AM 46.0608 -109.6911 107° East 247 284 15,000  Level Salt Lake Center
Wed 06:23:42 AM 46.0450 -109.5981 104° East 242 278 15,000  Level Salt Lake Center
Wed 06:24:42 AM 46.0253 -109.5039 107° East 246 283 15,000 -150 Level Salt Lake Center
Wed 06:25:42 AM 46.0039 -109.4006 107° East 252 290 14,700 -496 Descending Salt Lake Center
Wed 06:26:43 AM 45.9811 -109.3053 109° East 254 292 14,000 -744 Descending Salt Lake Center
Wed 06:27:43 AM 45.9592 -109.2083 108° East 257 296 13,200 -850 Descending Salt Lake Center
Wed 06:28:43 AM 45.9344 -109.1150 111° Southeast 255 293 12,300 -950 Descending Salt Lake Center
Wed 06:29:43 AM 45.9100 -109.0203 110° East 257 296 11,300 -942 Descending Salt Lake Center
Wed 06:30:44 AM 45.8878 -108.9294 109° East 246 283 10,400 -1,091 Descending Salt Lake Center
Wed 06:31:44 AM 45.8703 -108.8411 106° East 235 270 9,100 -1,350 Descending Salt Lake Center
Wed 06:32:44 AM 45.8542 -108.7461 104° East 229 264 7,700 -1,500 Descending Salt Lake Center
Wed 06:33:44 AM 45.8422 -108.6669 102° East 209 241 6,100 -1,488 Descending Salt Lake Center
Wed 06:34:45 AM 45.8258 -108.6017 110° East 172 198 4,700 -1,140 Descending Salt Lake Center
Wed 06:35:45 AM 45.8133 -108.5583 112° Southeast 124 143 3,800 -900 Descending Salt Lake Center
Wed 06:37:00 AM 45.8077 -108.5429 90° East  Level Estimated
Wed 06:44:00 AM 45.8077 -108.5429 90° East  Level Estimated

Login

Don't have an account? Register now (free) for customized features, flight alerts, and more!